Denver, CO (80235)

12:51 AM MDT on April 28, 2015 (GMT -0600)
Silver Valley | | Change Station
CLOSE
Current Station
Personal Weather Station
Location: Lakewood, CO
Elevation: 5443 ft
Nearby Weather Stations

Elev 5443 ft 39.66 °N, 105.09 °W | Updated 2 minutes ago

Overcast
Overcast
43.8 °F
Feels Like 44 °F
N
0.0
Wind Variable Wind from SE
Gusts 0.0 mph

Today
High -- | Low -- °F
--% Chance of Precip.
Yesterday
High -- | Low -- °F
Precip. -- in
6:05 AM 7:51 PM
Waxing Gibbous, 71% visible
Pressure 30.37 in
Visibility 10.0 miles
Clouds Few 4900 ft
Overcast 6000 ft
Windchill 44 °F
Dew Point 39 °F
Humidity 83%
Rainfall 0.00 in
Snow Depth Not available.
UV 0 out of 12
Pollen 3.20 out of 12
Air Quality Not available.
Flu Activity Sporadic
METAR KAPA 280553Z 31003KT 10SM FEW049 OVC060 06/03 A3035 RMK AO2 SLP284 T00560033 10067 20050 51009

More Conditions Fewer Conditions

Pressure 30.37 in
Visibility 10.0 miles
Clouds Few 4900 ft
Overcast 6000 ft
Windchill 44 °F
Dew Point 39 °F
Humidity 83%
Rainfall 0.00 in
Snow Depth Not available.
UV 0 out of 12
Pollen 3.20 out of 12
Air Quality Not available.
Flu Activity Sporadic
METAR KAPA 280553Z 31003KT 10SM FEW049 OVC060 06/03 A3035 RMK AO2 SLP284 T00560033 10067 20050 51009

More Conditions Fewer Conditions

10-Day Weather Forecast

Almanac

Astronomy

Apr. 28, 2015 Rise Set
Actual Time
Civil Twilight
Nautical Twilight
Astronomical Twilight
Moon
Length of Visible Light
Length of Day
Tomorrow will be .
, % of the Moon is Illuminated

Today's Extremes

State Highs State Lows

Community

WunderPhotos

Upload Photos

1,817,591 photos uploaded!

WunderBlogs® & News

Nearby

Air Quality

  Air Quality AQ Index Pollutant
Not available.

Snow Depth

Station Depth Elevation

Earthquake Activity

City Distance Mag. Time & Date
Minimum magnitude displayed is 2.5.

Coastal Water Temperatures

Place Temperature

Stations

Nearby Weather Stations

Station Location Temp. Windchill Dew Point Humidity Wind Precip. Elev Updated Type